Time;durP1;ratioP1;P1;durP2;ratioP2;P2;SDS_P1;SDS_P2;PMS_P1;PMS_P2;Temp;Humidity;BMP_temperature;BMP_pressure;BME280_temperature;BME280_humidity;BME280_pressure;Samples;Min_cycle;Max_cycle;Signal;HPM_P1;HPM_P2
2021/10/11 00:00:25;;;;;;;;;49.00;40.00;;;;;18.92;49.83;102476.19;5057377;28;45509;-54
2021/10/11 00:02:51;;;;;;;;;47.00;39.75;;;;;18.92;49.78;102470.84;5056841;28;46737;-57
2021/10/11 00:05:16;;;;;;;;;51.25;39.50;;;;;18.92;50.27;102473.50;5056912;28;45372;-47
2021/10/11 00:07:42;;;;;;;;;53.50;39.00;;;;;18.93;50.14;102467.31;5057211;28;45232;-55
2021/10/11 00:10:08;;;;;;;;;49.25;41.25;;;;;18.92;50.15;102469.09;5057048;28;45522;-45
2021/10/11 00:12:34;;;;;;;;;52.25;41.75;;;;;18.92;49.99;102463.75;5057017;28;47271;-48
2021/10/11 00:15:01;;;;;;;;;53.50;42.25;;;;;18.92;50.12;102462.84;5056671;28;45403;-51
2021/10/11 00:17:26;;;;;;;;;47.50;40.25;;;;;18.92;50.23;102474.41;5056887;28;45331;-51
2021/10/11 00:19:52;;;;;;;;;48.25;39.25;;;;;18.92;50.07;102466.41;5056974;28;45507;-56
2021/10/11 00:22:19;;;;;;;;;55.25;41.50;;;;;18.92;50.11;102469.09;5056579;28;46260;-52
2021/10/11 00:24:44;;;;;;;;;50.75;40.50;;;;;18.93;50.18;102475.31;5056942;28;45743;-46
2021/10/11 00:27:10;;;;;;;;;47.00;38.75;;;;;18.92;50.37;102468.19;5055991;28;45330;-55
2021/10/11 00:29:36;;;;;;;;;51.00;40.75;;;;;18.92;50.20;102473.50;5057009;28;45470;-62
2021/10/11 00:32:03;;;;;;;;;53.25;43.25;;;;;18.92;50.05;102481.50;5056425;28;45351;-59
2021/10/11 00:34:30;;;;;;;;;49.50;39.75;;;;;18.91;50.14;102472.63;5056261;28;45243;-63
2021/10/11 00:36:55;;;;;;;;;50.00;42.25;;;;;18.93;50.29;102477.97;5056680;28;45423;-50
2021/10/11 00:39:20;;;;;;;;;49.00;41.25;;;;;18.91;50.31;102477.94;5056610;28;45438;-46
2021/10/11 00:41:46;;;;;;;;;49.25;39.75;;;;;18.92;50.05;102479.75;5056377;28;46068;-52
2021/10/11 00:44:11;;;;;;;;;49.00;38.25;;;;;18.93;50.34;102476.19;5056695;28;45399;-49
2021/10/11 00:46:37;;;;;;;;;49.50;40.50;;;;;18.92;50.05;102473.50;5056943;28;45521;-48
2021/10/11 00:49:02;;;;;;;;;48.75;41.50;;;;;18.92;50.16;102476.19;5063055;28;45317;-48
2021/10/11 00:51:28;;;;;;;;;51.00;42.00;;;;;18.92;50.39;102473.50;5062936;28;46232;-47
2021/10/11 00:53:53;;;;;;;;;48.50;40.50;;;;;18.93;50.28;102472.66;5062973;28;45360;-60
2021/10/11 00:56:19;;;;;;;;;54.50;42.75;;;;;18.92;50.03;102478.84;5063056;28;45354;-63
2021/10/11 00:58:44;;;;;;;;;47.50;38.75;;;;;18.92;50.38;102468.19;5063546;28;45204;-53
2021/10/11 01:01:10;;;;;;;;;52.75;42.00;;;;;18.91;50.52;102461.94;5044815;28;48294;-58
2021/10/11 01:03:35;;;;;;;;;49.00;40.75;;;;;18.93;50.41;102454.00;5063108;28;45311;-57
2021/10/11 01:06:00;;;;;;;;;54.50;42.75;;;;;18.92;50.52;102457.53;5062965;28;45438;-58
2021/10/11 01:08:26;;;;;;;;;48.75;41.75;;;;;18.93;50.48;102456.66;5063271;28;45140;-59
2021/10/11 01:10:51;;;;;;;;;53.25;42.75;;;;;18.93;50.65;102459.31;5062720;28;46931;-48
2021/10/11 01:13:16;;;;;;;;;48.50;40.25;;;;;18.92;50.21;102458.44;5062821;28;45445;-56
2021/10/11 01:15:42;;;;;;;;;48.75;41.50;;;;;18.92;50.55;102457.53;5063207;28;45316;-61
2021/10/11 01:18:08;;;;;;;;;52.75;42.25;;;;;18.92;50.55;102462.84;5062820;28;45291;-52
2021/10/11 01:20:34;;;;;;;;;46.50;39.50;;;;;18.93;50.50;102456.66;5062737;28;47141;-53
2021/10/11 01:22:59;;;;;;;;;48.75;40.75;;;;;18.93;50.59;102459.31;5062696;28;45903;-48
2021/10/11 01:25:24;;;;;;;;;51.25;40.50;;;;;18.92;50.68;102458.44;5062666;28;45502;-48
2021/10/11 01:27:50;;;;;;;;;53.25;43.50;;;;;18.93;50.49;102459.31;5062934;28;45466;-56
2021/10/11 01:30:16;;;;;;;;;50.75;41.50;;;;;18.92;50.76;102455.75;5062201;28;46431;-47
2021/10/11 01:32:46;;;;;;;;;57.75;44.00;;;;;18.93;50.73;102459.31;5062823;28;45407;-55
2021/10/11 01:35:13;;;;;;;;;49.25;40.00;;;;;18.93;50.56;102459.31;5062055;28;45433;-54
2021/10/11 01:37:39;;;;;;;;;45.00;37.75;;;;;18.91;50.69;102461.94;5062653;28;45314;-55
2021/10/11 01:40:07;;;;;;;;;48.50;40.00;;;;;18.92;50.63;102457.53;5062372;28;46288;-50
2021/10/11 01:42:32;;;;;;;;;47.75;39.00;;;;;18.92;50.69;102452.19;5062379;28;45326;-59
2021/10/11 01:44:58;;;;;;;;;47.25;39.50;;;;;18.91;50.66;102437.97;5062682;28;45247;-46
2021/10/11 01:47:26;;;;;;;;;53.00;42.00;;;;;18.92;50.86;102436.22;5062764;28;45302;-61
2021/10/11 01:49:51;;;;;;;;;46.75;38.00;;;;;18.92;50.95;102436.22;5062254;28;47156;-51
2021/10/11 01:52:17;;;;;;;;;49.25;40.25;;;;;18.92;50.75;102436.22;5062101;28;45173;-51
2021/10/11 01:54:42;;;;;;;;;49.00;40.50;;;;;18.91;50.74;102435.31;5062658;28;45419;-60
2021/10/11 01:57:08;;;;;;;;;49.50;40.50;;;;;18.90;50.82;102436.19;5062665;28;45315;-47
2021/10/11 01:59:34;;;;;;;;;49.50;39.50;;;;;18.90;51.00;102444.19;5059260;28;47017;-54
2021/10/11 02:01:59;;;;;;;;;53.00;42.00;;;;;18.91;51.00;102453.97;5058840;28;45323;-55
2021/10/11 02:04:25;;;;;;;;;53.25;42.50;;;;;18.92;50.83;102457.53;5059104;28;45461;-50
2021/10/11 02:06:50;;;;;;;;;46.75;39.00;;;;;18.92;50.94;102458.44;5059013;28;45350;-52
2021/10/11 02:09:16;;;;;;;;;52.25;42.25;;;;;18.92;50.88;102452.19;5058697;28;46074;-53
2021/10/11 02:11:41;;;;;;;;;46.50;38.00;;;;;18.92;50.83;102453.09;5058719;28;45446;-61
2021/10/11 02:14:07;;;;;;;;;51.25;40.25;;;;;18.94;51.16;102450.44;5059020;28;45369;-58
2021/10/11 02:16:32;;;;;;;;;54.00;41.75;;;;;18.93;51.09;102451.34;5059206;28;45507;-55
2021/10/11 02:18:58;;;;;;;;;48.50;39.25;;;;;18.93;51.00;102451.34;5058707;28;45869;-50
2021/10/11 02:21:23;;;;;;;;;52.50;42.25;;;;;18.93;51.22;102438.00;5058554;28;45395;-58
2021/10/11 02:23:48;;;;;;;;;48.50;39.00;;;;;18.92;51.16;102441.53;5058684;28;45351;-65
2021/10/11 02:26:14;;;;;;;;;46.25;38.75;;;;;18.91;51.11;102445.09;5059034;28;45302;-55
2021/10/11 02:28:39;;;;;;;;;48.25;38.75;;;;;18.91;51.41;102445.09;5058337;28;46208;-61
2021/10/11 02:31:05;;;;;;;;;48.00;38.75;;;;;18.91;51.25;102448.63;5058362;28;45198;-60
2021/10/11 02:33:30;;;;;;;;;47.00;39.25;;;;;18.92;51.13;102449.53;5058239;28;45326;-59
2021/10/11 02:35:55;;;;;;;;;47.75;40.50;;;;;18.92;51.56;102436.22;5058817;28;45412;-46
2021/10/11 02:38:21;;;;;;;;;51.50;41.50;;;;;18.91;51.41;102435.31;5058261;28;46848;-48
2021/10/11 02:40:46;;;;;;;;;45.50;37.75;;;;;18.92;51.25;102422.88;5058280;28;45294;-47
2021/10/11 02:43:12;;;;;;;;;49.00;39.50;;;;;18.91;51.25;102419.31;5058566;28;45375;-58
2021/10/11 02:45:37;;;;;;;;;50.00;39.75;;;;;18.92;51.25;102420.22;5058562;28;45245;-62
2021/10/11 02:48:04;;;;;;;;;46.75;39.50;;;;;18.93;51.46;102424.69;5058303;28;46510;-47
2021/10/11 02:50:29;;;;;;;;;48.75;39.00;;;;;18.91;51.32;102423.78;5058246;28;45435;-58
2021/10/11 02:52:55;;;;;;;;;52.50;41.00;;;;;18.91;51.50;102426.44;5058018;28;45371;-58
2021/10/11 02:55:20;;;;;;;;;49.75;39.25;;;;;18.90;51.49;102417.56;5058439;28;45370;-55
2021/10/11 02:57:46;;;;;;;;;43.75;35.50;;;;;18.92;51.51;102422.88;5057822;28;46861;-46
2021/10/11 03:00:12;;;;;;;;;47.50;37.75;;;;;18.92;51.98;102417.56;5058247;28;45387;-63
2021/10/11 03:02:37;;;;;;;;;47.75;37.50;;;;;18.92;51.46;102420.22;5058021;28;45246;-63
2021/10/11 03:05:03;;;;;;;;;42.25;35.50;;;;;18.92;51.86;102417.56;5058390;28;45387;-60
2021/10/11 03:07:28;;;;;;;;;41.00;35.00;;;;;18.93;51.70;102414.03;5057971;28;47580;-51
2021/10/11 03:09:54;;;;;;;;;49.50;38.50;;;;;18.93;51.92;102411.38;5057547;28;45335;-58
2021/10/11 03:12:19;;;;;;;;;45.00;34.50;;;;;18.93;51.88;102414.03;5058055;28;45300;-57
2021/10/11 03:14:44;;;;;;;;;47.25;38.75;;;;;18.93;51.80;102416.69;5058140;28;45211;-59
2021/10/11 03:17:10;;;;;;;;;41.75;35.25;;;;;18.94;52.02;102418.47;5057787;28;46906;-50
2021/10/11 03:19:35;;;;;;;;;41.50;34.00;;;;;18.94;52.13;102421.13;5057813;28;45334;-52
2021/10/11 03:22:01;;;;;;;;;39.50;34.75;;;;;18.93;52.13;102427.34;5058043;28;45398;-62
2021/10/11 03:24:27;;;;;;;;;40.50;33.25;;;;;18.92;51.99;102420.22;5058017;28;45436;-60
2021/10/11 03:26:54;;;;;;;;;40.75;33.25;;;;;18.92;51.94;102422.88;5057290;28;46318;-57
2021/10/11 03:29:19;;;;;;;;;38.50;33.25;;;;;18.92;52.28;102430.88;5057516;28;45447;-64
2021/10/11 03:31:44;;;;;;;;;38.00;32.50;;;;;18.92;52.02;102422.88;5057561;28;45422;-59
2021/10/11 03:34:11;;;;;;;;;35.00;30.75;;;;;18.92;52.12;102426.44;5057619;28;45487;-59
2021/10/11 03:36:38;;;;;;;;;36.00;31.00;;;;;18.92;52.19;102426.44;5057588;28;46378;-61
2021/10/11 03:39:05;;;;;;;;;36.75;30.75;;;;;18.93;52.37;102432.69;5057283;28;45169;-48
2021/10/11 03:41:30;;;;;;;;;34.75;30.75;;;;;18.91;52.31;102429.97;5057468;28;45331;-61
2021/10/11 03:43:56;;;;;;;;;34.00;29.75;;;;;18.92;52.48;102426.44;5057401;28;45231;-57
2021/10/11 03:46:21;;;;;;;;;32.00;29.67;;;;;18.92;52.13;102428.22;5057330;28;46125;-55
2021/10/11 03:48:46;;;;;;;;;32.50;29.50;;;;;18.92;52.38;102431.78;5057426;28;45431;-46
2021/10/11 03:51:12;;;;;;;;;33.75;29.75;;;;;18.91;52.29;102432.66;5057449;28;45368;-54
2021/10/11 03:53:38;;;;;;;;;31.67;25.67;;;;;18.93;52.47;102443.34;5057708;28;45274;-53
2021/10/11 03:56:03;;;;;;;;;28.00;27.00;;;;;18.91;52.04;102434.44;5056908;28;47162;-54
2021/10/11 03:58:29;;;;;;;;;26.67;26.33;;;;;18.92;52.55;102436.22;5057241;28;45403;-53
2021/10/11 04:00:54;;;;;;;;;31.00;27.67;;;;;18.92;52.14;102441.53;5057087;28;45605;-56
2021/10/11 04:03:20;;;;;;;;;27.67;27.67;;;;;18.91;52.51;102439.75;5057401;28;45403;-49
2021/10/11 04:05:45;;;;;;;;;36.00;27.50;;;;;18.92;52.34;102436.22;5057040;28;46131;-51
2021/10/11 04:08:13;;;;;;;;;24.00;23.00;;;;;18.92;52.38;102436.22;5056983;28;45755;-55
2021/10/11 04:13:19;;;;;;;;;21.33;16.67;;;;;18.91;52.45;102427.31;5057078;28;45348;-52
2021/10/11 04:15:44;;;;;;;;;27.00;21.00;;;;;18.91;52.55;102432.66;5056842;28;46081;-57
2021/10/11 04:18:10;;;;;;;;;21.33;20.33;;;;;18.91;52.59;102437.97;5056509;28;45330;-47
2021/10/11 04:20:35;;;;;;;;;21.67;20.00;;;;;18.91;52.51;102439.75;5057237;28;45769;-46
2021/10/11 04:23:01;;;;;;;;;22.33;19.33;;;;;18.91;52.75;102440.63;5056384;28;45337;-59
2021/10/11 04:25:26;;;;;;;;;20.33;19.33;;;;;18.91;52.62;102443.31;5056644;28;46154;-51
2021/10/11 04:27:51;;;;;;;;;16.67;16.67;;;;;18.91;52.34;102445.09;5056768;28;45385;-52
2021/10/11 04:30:17;;;;;;;;;18.33;18.00;;;;;18.91;52.36;102442.44;5056540;28;45235;-58
2021/10/11 04:32:42;;;;;;;;;23.67;19.33;;;;;18.91;52.37;102439.75;5057114;28;45306;-47
2021/10/11 04:35:08;;;;;;;;;20.00;17.00;;;;;18.91;52.47;102447.75;5056349;28;46235;-54
2021/10/11 04:37:33;;;;;;;;;15.33;14.00;;;;;18.91;52.37;102445.09;5056675;28;45303;-63
2021/10/11 04:39:59;;;;;;;;;15.33;14.33;;;;;18.91;52.69;102455.75;5056698;28;45241;-48
2021/10/11 04:42:24;;;;;;;;;17.00;15.33;;;;;18.91;52.66;102461.94;5056667;28;45236;-53
2021/10/11 04:44:49;;;;;;;;;16.33;15.67;;;;;18.90;52.67;102452.19;5056468;28;47103;-49
2021/10/11 04:47:15;;;;;;;;;19.00;14.67;;;;;18.91;52.52;102464.63;5056502;28;45196;-50
2021/10/11 04:49:40;;;;;;;;;14.33;14.33;;;;;18.91;52.41;102455.75;5056507;28;45214;-55
2021/10/11 04:52:05;;;;;;;;;13.67;12.33;;;;;18.91;52.64;102461.09;5056827;28;45228;-46
2021/10/11 04:54:31;;;;;;;;;13.67;13.33;;;;;18.90;52.43;102461.94;5056279;28;46086;-47
2021/10/11 04:56:56;;;;;;;;;16.67;13.67;;;;;18.89;52.41;102463.72;5056409;28;45316;-57
2021/10/11 04:59:22;;;;;;;;;16.33;11.67;;;;;18.89;52.60;102461.03;5056419;28;45252;-50
2021/10/11 05:01:47;;;;;;;;;12.00;11.00;;;;;18.90;52.52;102469.94;5056643;28;45184;-49
2021/10/11 05:04:12;;;;;;;;;12.00;11.33;;;;;18.89;52.52;102463.72;5056411;28;47292;-62
2021/10/11 05:06:38;;;;;;;;;12.67;12.67;;;;;18.89;52.60;102469.03;5056228;28;45263;-57
2021/10/11 05:09:03;;;;;;;;;12.67;11.67;;;;;18.89;52.65;102465.50;5056445;28;45684;-48
2021/10/11 05:11:29;;;;;;;;;11.67;9.67;;;;;18.89;52.43;102474.38;5056301;28;45371;-50
2021/10/11 05:13:56;;;;;;;;;8.00;8.00;;;;;18.89;52.70;102463.72;5056007;28;46251;-51
2021/10/11 05:16:22;;;;;;;;;11.00;9.67;;;;;18.90;52.72;102461.94;5055966;28;45366;-57
2021/10/11 05:18:47;;;;;;;;;10.33;10.33;;;;;18.90;52.50;102464.63;5056351;28;45409;-52
2021/10/11 05:21:13;;;;;;;;;11.00;9.33;;;;;18.88;52.56;102461.94;5056536;28;45359;-50
2021/10/11 05:23:38;;;;;;;;;10.67;8.33;;;;;18.89;52.55;102465.50;5056069;28;46900;-52
2021/10/11 05:26:03;;;;;;;;;11.33;9.00;;;;;18.90;52.38;102459.28;5055555;28;45391;-49
2021/10/11 05:28:29;;;;;;;;;10.33;10.33;;;;;18.88;52.62;102456.59;5056101;28;45365;-46
2021/10/11 05:30:54;;;;;;;;;11.33;10.67;;;;;18.89;52.48;102473.50;5056000;28;45326;-61
2021/10/11 05:33:22;;;;;;;;;11.33;9.33;;;;;18.89;52.47;102473.50;5055560;28;46936;-55
2021/10/11 05:35:48;;;;;;;;;13.00;8.00;;;;;18.89;52.52;102470.84;5057874;28;45405;-55
2021/10/11 05:38:14;;;;;;;;;10.67;10.67;;;;;18.89;52.91;102468.16;5058532;28;45442;-70
2021/10/11 05:40:39;;;;;;;;;13.00;11.67;;;;;18.88;53.09;102464.59;5059539;28;45367;-69
2021/10/11 05:43:07;;;;;;;;;13.00;13.00;;;;;18.89;53.33;102473.50;5059118;28;46057;-63
2021/10/11 05:45:32;;;;;;;;;15.33;13.33;;;;;18.89;53.36;102474.38;5059036;28;45650;-56
2021/10/11 05:47:57;;;;;;;;;16.33;13.00;;;;;18.90;53.30;102475.28;5059242;28;45382;-65
2021/10/11 05:50:23;;;;;;;;;15.33;13.00;;;;;18.90;53.52;102472.59;5059353;28;45277;-63
2021/10/11 05:52:48;;;;;;;;;14.67;13.00;;;;;18.90;53.32;102470.84;5059042;28;46290;-59
2021/10/11 05:55:14;;;;;;;;;12.67;11.00;;;;;18.92;53.41;102484.16;5059071;28;45279;-60
2021/10/11 05:57:41;;;;;;;;;13.33;12.33;;;;;18.90;53.33;102488.59;5058876;28;45323;-50
2021/10/11 06:00:08;;;;;;;;;15.67;15.00;;;;;18.91;53.18;102488.59;5059266;28;45623;-59
2021/10/11 06:02:33;;;;;;;;;15.67;14.67;;;;;18.91;53.24;102488.59;5058679;28;47041;-65
2021/10/11 06:04:58;;;;;;;;;20.00;15.00;;;;;18.92;53.23;102489.50;5058812;28;45703;-54
2021/10/11 06:07:24;;;;;;;;;16.67;13.00;;;;;18.92;53.22;102493.06;5058963;28;45631;-59
2021/10/11 06:09:49;;;;;;;;;15.33;14.67;;;;;18.91;53.19;102491.25;5058989;28;45360;-57
2021/10/11 06:12:14;;;;;;;;;16.00;15.00;;;;;18.92;53.39;102501.06;5058873;28;46300;-60
2021/10/11 06:14:40;;;;;;;;;14.33;11.67;;;;;18.92;54.20;102506.38;5058521;28;45386;-53
2021/10/11 06:17:05;;;;;;;;;16.00;15.33;;;;;18.92;54.61;102506.38;5058811;28;45419;-53
2021/10/11 06:19:30;;;;;;;;;14.33;13.00;;;;;18.94;55.13;102499.31;5058897;28;45361;-48
2021/10/11 06:21:56;;;;;;;;;15.00;12.67;;;;;18.95;55.14;102513.53;5058444;28;46086;-54
2021/10/11 06:24:21;;;;;;;;;19.33;12.67;;;;;18.96;55.52;102509.97;5058722;28;45441;-50
2021/10/11 06:26:47;;;;;;;;;14.00;14.00;;;;;18.95;55.43;102521.53;5058463;28;45318;-54
2021/10/11 06:29:12;;;;;;;;;15.67;15.67;;;;;18.96;55.18;102508.22;5058964;28;45491;-65
2021/10/11 06:31:38;;;;;;;;;18.67;15.00;;;;;18.96;55.41;102521.53;5058108;28;46805;-50
2021/10/11 06:34:04;;;;;;;;;15.67;15.33;;;;;18.97;55.34;102517.09;5058279;28;45493;-57
2021/10/11 06:36:34;;;;;;;;;18.00;14.00;;;;;18.97;55.18;102522.44;5058510;28;45269;-58
2021/10/11 06:39:00;;;;;;;;;12.67;12.67;;;;;18.96;54.97;102520.63;5058664;28;45428;-53
2021/10/11 06:41:25;;;;;;;;;15.00;14.00;;;;;18.96;54.85;102523.31;5058049;28;45911;-56
2021/10/11 06:43:51;;;;;;;;;16.33;12.33;;;;;18.97;55.14;102525.09;5057997;28;45378;-46
2021/10/11 06:46:16;;;;;;;;;15.67;14.00;;;;;18.96;55.13;102528.63;5053028;28;45494;-56
2021/10/11 06:48:41;;;;;;;;;13.67;12.33;;;;;18.96;54.69;102533.97;5038203;28;45428;-53
2021/10/11 06:51:07;;;;;;;;;14.00;13.00;;;;;18.96;54.83;102523.31;5038046;28;46165;-58
2021/10/11 06:53:32;;;;;;;;;12.00;12.00;;;;;18.95;54.45;102535.72;5038263;28;45318;-54
2021/10/11 06:55:57;;;;;;;;;12.33;12.33;;;;;18.95;54.19;102537.53;5037958;28;45641;-58
2021/10/11 06:58:23;;;;;;;;;15.00;12.67;;;;;18.95;54.13;102532.19;5038124;28;45697;-51
2021/10/11 07:00:48;;;;;;;;;18.33;11.00;;;;;18.94;53.93;102536.63;5037389;28;47073;-60
2021/10/11 07:03:15;;;;;;;;;12.33;10.67;;;;;18.94;54.18;102525.06;5037936;28;45398;-57
2021/10/11 07:05:40;;;;;;;;;14.33;13.67;;;;;18.95;54.15;102533.06;5037877;28;45336;-50
2021/10/11 07:08:10;;;;;;;;;11.67;11.33;;;;;18.95;53.96;102532.19;5037662;28;45342;-51
2021/10/11 07:10:36;;;;;;;;;12.33;11.00;;;;;18.94;53.73;102530.38;5037544;28;46349;-62
2021/10/11 07:13:03;;;;;;;;;16.33;13.67;;;;;18.94;53.79;102538.38;5037520;28;45449;-50
2021/10/11 07:15:29;;;;;;;;;14.67;12.33;;;;;18.94;53.84;102531.28;5037626;28;45311;-59
2021/10/11 07:17:55;;;;;;;;;14.67;12.67;;;;;18.93;53.77;102534.81;5037462;28;45459;-66
2021/10/11 07:20:21;;;;;;;;;13.33;12.33;;;;;18.93;53.92;102533.94;5037329;28;46356;-52
2021/10/11 07:22:46;;;;;;;;;16.00;11.00;;;;;18.92;54.03;102537.47;5037976;28;45226;-59
2021/10/11 07:25:11;;;;;;;;;13.33;12.33;;;;;18.91;53.81;102547.22;5037722;28;45220;-55
2021/10/11 07:27:37;;;;;;;;;14.00;12.33;;;;;18.93;53.89;102557.94;5038046;28;45289;-58
2021/10/11 07:30:03;;;;;;;;;13.00;11.00;;;;;18.92;54.03;102558.78;5037212;28;46221;-59
2021/10/11 07:32:29;;;;;;;;;16.33;11.33;;;;;18.92;53.89;102558.78;5037146;28;45410;-53
2021/10/11 07:34:54;;;;;;;;;14.67;14.00;;;;;18.93;53.85;102563.25;5036996;28;45386;-52
2021/10/11 07:37:21;;;;;;;;;16.67;12.33;;;;;18.92;53.90;102564.13;5037672;28;45344;-55
2021/10/11 07:39:46;;;;;;;;;15.00;13.33;;;;;18.91;53.86;102567.66;5037502;28;47011;-55
2021/10/11 07:42:12;;;;;;;;;12.67;9.67;;;;;18.91;53.73;102579.19;5037015;28;45408;-58
2021/10/11 07:44:37;;;;;;;;;12.00;11.00;;;;;18.91;53.66;102583.66;5037409;28;45367;-62
2021/10/11 07:47:03;;;;;;;;;16.67;11.00;;;;;18.90;53.87;102580.09;5037549;28;45358;-56
2021/10/11 07:49:29;;;;;;;;;13.00;12.00;;;;;18.91;53.72;102581.00;5037199;28;46802;-55
2021/10/11 07:51:54;;;;;;;;;14.33;10.00;;;;;18.91;53.61;102575.66;5037351;28;45436;-53
2021/10/11 07:54:20;;;;;;;;;12.67;11.00;;;;;18.90;53.81;102577.44;5037014;28;45431;-60
2021/10/11 07:56:46;;;;;;;;;14.00;12.00;;;;;18.91;53.45;102583.66;5036597;28;45400;-57
2021/10/11 07:59:11;;;;;;;;;12.33;8.67;;;;;18.91;53.74;102581.00;5036914;28;47240;-57
2021/10/11 08:01:37;;;;;;;;;13.33;11.67;;;;;18.90;53.43;102585.41;5036874;28;45403;-53
2021/10/11 08:04:03;;;;;;;;;13.00;11.33;;;;;18.90;53.41;102581.84;5036940;28;45233;-56
2021/10/11 08:06:30;;;;;;;;;11.67;9.67;;;;;18.89;53.59;102591.59;5037116;28;45451;-58
2021/10/11 08:08:56;;;;;;;;;11.67;10.00;;;;;18.91;53.54;102595.19;5036641;28;46389;-66
2021/10/11 08:11:21;;;;;;;;;9.33;7.33;;;;;18.90;53.55;102595.19;5036424;28;45612;-59
2021/10/11 08:13:47;;;;;;;;;9.00;9.00;;;;;18.90;53.34;102589.84;5037181;28;45300;-59
2021/10/11 08:16:12;;;;;;;;;13.00;8.67;;;;;18.89;53.05;102588.94;5037263;28;45313;-50
2021/10/11 08:18:37;;;;;;;;;11.67;8.67;;;;;18.90;53.11;102589.84;5036671;28;45991;-55
2021/10/11 08:21:04;;;;;;;;;9.33;8.00;;;;;18.90;53.14;102597.84;5036626;28;45312;-49
2021/10/11 08:23:35;;;;;;;;;10.00;8.33;;;;;18.88;53.29;102584.50;5037025;28;45362;-54
2021/10/11 08:26:01;;;;;;;;;11.33;7.67;;;;;18.89;53.31;102588.94;5037067;28;45480;-51
2021/10/11 08:28:26;;;;;;;;;10.00;8.00;;;;;18.89;53.31;102585.41;5036425;28;46109;-49
2021/10/11 08:30:53;;;;;;;;;6.00;6.00;;;;;18.89;53.17;102586.28;5036328;28;45343;-50
2021/10/11 08:33:19;;;;;;;;;9.67;6.67;;;;;18.89;52.92;102596.06;5036314;28;45284;-46
2021/10/11 08:35:44;;;;;;;;;8.67;8.67;;;;;18.88;52.94;102594.25;5037009;28;45233;-50
2021/10/11 08:38:10;;;;;;;;;7.00;6.33;;;;;18.88;52.78;102583.59;5036415;28;46943;-46
2021/10/11 08:40:36;;;;;;;;;8.00;8.00;;;;;18.86;52.65;102589.81;5036508;28;45208;-52
2021/10/11 08:43:01;;;;;;;;;8.00;7.00;;;;;18.88;52.77;102594.25;5036575;28;45327;-49
2021/10/11 08:45:27;;;;;;;;;7.00;7.00;;;;;18.88;52.57;102594.25;5036792;28;45719;-51
2021/10/11 08:47:52;;;;;;;;;6.33;6.00;;;;;18.87;52.77;102588.03;5036262;28;46250;-52
2021/10/11 08:50:18;;;;;;;;;8.67;7.00;;;;;18.87;52.74;102590.69;5036122;28;45390;-56
2021/10/11 08:52:43;;;;;;;;;7.33;7.33;;;;;18.88;52.40;102594.25;5036636;28;45379;-54
2021/10/11 08:55:09;;;;;;;;;7.67;7.00;;;;;18.88;52.68;102599.59;5036702;28;45447;-54
2021/10/11 08:57:35;;;;;;;;;6.67;5.33;;;;;18.88;52.30;102599.59;5036209;28;46999;-60
2021/10/11 09:00:08;;;;;;;;;8.67;5.00;;;;;18.88;52.33;102605.81;5035289;28;45572;-56
2021/10/11 09:02:33;;;;;;;;;6.00;5.33;;;;;18.86;52.63;102603.16;5036105;28;45474;-59
2021/10/11 09:04:59;;;;;;;;;4.67;4.67;;;;;18.88;52.42;102604.94;5036419;28;45328;-58
2021/10/11 09:07:27;;;;;;;;;6.67;4.33;;;;;18.86;52.22;102605.81;5035860;28;46776;-49
2021/10/11 09:09:54;;;;;;;;;6.00;6.00;;;;;18.86;52.27;102608.47;5039021;28;45426;-57
2021/10/11 09:12:22;;;;;;;;;6.33;4.33;;;;;18.86;52.38;102612.91;5039933;28;45320;-59
2021/10/11 09:15:08;;;;;;;;;6.00;3.67;;;;;18.86;52.16;102610.25;5039988;28;45422;-51
2021/10/11 09:17:39;;;;;;;;;7.00;5.00;;;;;18.86;52.10;102619.13;5039239;28;47080;-53
2021/10/11 09:20:25;;;;;;;;;5.00;4.00;;;;;18.86;52.10;102612.91;5039443;28;45486;-51
2021/10/11 09:22:53;;;;;;;;;6.00;6.00;;;;;18.85;51.81;102614.66;5039590;28;45216;-47
2021/10/11 09:25:20;;;;;;;;;5.67;4.67;;;;;18.85;52.08;102605.78;5039698;28;45405;-50
2021/10/11 09:27:53;;;;;;;;;6.00;6.00;;;;;18.86;52.14;102612.91;5039236;28;46103;-58
2021/10/11 09:30:23;;;;;;;;;6.00;5.67;;;;;18.85;51.90;102609.34;5039006;28;45473;-55
2021/10/11 09:32:49;;;;;;;;;5.67;4.33;;;;;18.85;51.98;102614.66;5038561;28;45371;-53
2021/10/11 09:35:21;;;;;;;;;6.67;3.33;;;;;18.85;52.14;102604.00;5039520;28;45267;-55
2021/10/11 09:37:51;;;;;;;;;5.33;4.67;;;;;18.84;52.04;102596.91;5039246;28;46194;-63
2021/10/11 09:40:18;;;;;;;;;5.67;4.33;;;;;18.84;51.93;102596.91;5039356;28;45241;-55
2021/10/11 09:42:44;;;;;;;;;6.00;4.33;;;;;18.84;52.05;102591.59;5039129;28;45679;-52
2021/10/11 09:45:10;;;;;;;;;6.00;4.00;;;;;18.84;51.92;102598.66;5039235;28;45844;-47
2021/10/11 09:47:37;;;;;;;;;5.33;3.67;;;;;18.85;51.69;102605.78;5038863;28;46012;-56
2021/10/11 09:50:11;;;;;;;;;5.33;4.67;;;;;18.83;51.58;102600.44;5039367;28;45599;-51
2021/10/11 09:52:37;;;;;;;;;8.33;5.67;;;;;18.84;52.03;102610.22;5039221;28;45418;-52
2021/10/11 09:55:05;;;;;;;;;8.00;4.00;;;;;18.84;51.80;102604.91;5039137;28;45442;-57
2021/10/11 09:57:31;;;;;;;;;6.00;5.33;;;;;18.84;51.71;102602.25;5038744;28;46069;-58
2021/10/11 10:00:03;;;;;;;;;8.00;2.67;;;;;18.83;51.65;102597.78;5038812;28;45205;-51
2021/10/11 10:02:31;;;;;;;;;6.67;5.33;;;;;18.85;51.37;102597.78;5038814;28;45229;-58
2021/10/11 10:05:00;;;;;;;;;5.33;3.67;;;;;18.84;51.55;102604.91;5038980;28;45498;-47
2021/10/11 10:07:29;;;;;;;;;6.00;5.00;;;;;18.84;51.48;102601.34;5038600;28;47084;-53
2021/10/11 10:09:57;;;;;;;;;5.67;3.67;;;;;18.83;51.49;102591.53;5038500;28;45349;-53
2021/10/11 10:12:23;;;;;;;;;6.67;5.67;;;;;18.83;51.70;102592.44;5038897;28;45384;-47
2021/10/11 10:14:59;;;;;;;;;3.33;3.33;;;;;18.82;51.64;102601.31;5021093;28;45499;-55
2021/10/11 10:17:30;;;;;;;;;4.67;3.00;;;;;18.84;51.31;102604.00;5038732;28;46563;-53
2021/10/11 10:20:09;;;;;;;;;6.00;4.33;;;;;18.83;51.26;102596.88;5037715;28;45284;-60
2021/10/11 10:22:47;;;;;;;;;4.67;4.67;;;;;18.83;51.38;102599.53;5038560;28;45292;-56
2021/10/11 10:25:12;;;;;;;;;4.00;2.67;;;;;18.83;51.61;102591.53;5038766;28;45370;-56
2021/10/11 10:27:40;;;;;;;;;4.67;3.67;;;;;18.83;51.39;102595.09;5038589;28;45355;-57
2021/10/11 10:30:23;;;;;;;;;3.00;3.00;;;;;18.83;51.26;102591.53;5038389;28;45489;-50
2021/10/11 10:32:55;;;;;;;;;6.33;5.00;;;;;18.83;51.47;102597.78;5038508;28;45382;-54
2021/10/11 10:35:21;;;;;;;;;8.33;4.33;;;;;18.83;51.34;102597.78;5038496;28;45451;-63
2021/10/11 10:37:46;;;;;;;;;6.33;4.33;;;;;18.82;51.18;102588.00;5038188;28;47073;-57
2021/10/11 10:40:15;;;;;;;;;8.00;4.67;;;;;18.82;51.02;102581.78;5038196;28;45374;-56
2021/10/11 10:42:41;;;;;;;;;3.67;3.33;;;;;18.83;50.92;102592.44;5038249;28;45392;-53
2021/10/11 10:45:16;;;;;;;;;3.00;3.00;;;;;18.82;51.06;102590.66;5038662;28;45439;-56
2021/10/11 10:47:41;;;;;;;;;3.67;3.00;;;;;18.82;50.85;102588.00;5037845;28;46221;-54
2021/10/11 10:50:28;;;;;;;;;4.00;3.33;;;;;18.81;50.99;102591.53;5038144;28;45324;-56
2021/10/11 10:52:56;;;;;;;;;5.67;3.67;;;;;18.82;50.92;102587.09;5038383;28;45573;-55
2021/10/11 10:55:22;;;;;;;;;6.33;4.33;;;;;18.82;50.73;102601.31;5038181;28;45335;-62
2021/10/11 10:57:53;;;;;;;;;5.00;4.00;;;;;18.83;50.61;102604.84;5037951;28;46246;-56
2021/10/11 11:00:19;;;;;;;;;4.00;4.00;;;;;18.82;50.77;102597.75;5037951;28;45402;-54
2021/10/11 11:02:45;;;;;;;;;3.33;2.00;;;;;18.81;50.68;102596.84;5038059;28;45496;-57
2021/10/11 11:05:13;;;;;;;;;6.33;4.67;;;;;18.81;50.79;102604.84;5038252;28;45429;-56
2021/10/11 11:07:40;;;;;;;;;4.33;4.33;;;;;18.82;50.52;102595.09;5037849;28;47158;-54
2021/10/11 11:10:30;;;;;;;;;5.00;3.00;;;;;18.82;50.30;102608.41;5037694;28;45412;-52
2021/10/11 11:13:08;;;;;;;;;3.67;3.00;;;;;18.81;50.63;102606.59;5037915;28;45391;-59